sensor_id;sensor_type;location;lat;lon;timestamp;pressure;altitude;pressure_sealevel;temperature;humidity
38163;BME280;23977;53.078;18.248;2023-07-13T00:01:58;100830.03;;;16.07;100.00
38163;BME280;23977;53.078;18.248;2023-07-13T00:04:28;100796.09;;;16.21;100.00
38163;BME280;23977;53.078;18.248;2023-07-13T00:06:59;100806.91;;;16.34;100.00
38163;BME280;23977;53.078;18.248;2023-07-13T00:09:57;100659.94;;;15.51;100.00
38163;BME280;23977;53.078;18.248;2023-07-13T00:12:50;100800.41;;;16.22;100.00
38163;BME280;23977;53.078;18.248;2023-07-13T00:15:25;100819.41;;;16.20;100.00
38163;BME280;23977;53.078;18.248;2023-07-13T00:17:59;100823.50;;;16.16;100.00
38163;BME280;23977;53.078;18.248;2023-07-13T00:20:50;100815.66;;;16.15;100.00
38163;BME280;23977;53.078;18.248;2023-07-13T00:23:57;100824.94;;;16.12;100.00
38163;BME280;23977;53.078;18.248;2023-07-13T00:27:35;100843.31;;;16.15;100.00
38163;BME280;23977;53.078;18.248;2023-07-13T00:30:29;100850.69;;;16.35;100.00
38163;BME280;23977;53.078;18.248;2023-07-13T00:32:55;100834.00;;;16.11;100.00
38163;BME280;23977;53.078;18.248;2023-07-13T00:36:05;100836.63;;;16.04;100.00
38163;BME280;23977;53.078;18.248;2023-07-13T00:39:35;100818.25;;;15.80;100.00
38163;BME280;23977;53.078;18.248;2023-07-13T00:42:36;100686.66;;;14.95;100.00
38163;BME280;23977;53.078;18.248;2023-07-13T00:48:21;100868.06;;;16.32;100.00
38163;BME280;23977;53.078;18.248;2023-07-13T00:50:52;100870.69;;;16.25;100.00
38163;BME280;23977;53.078;18.248;2023-07-13T00:53:25;100857.69;;;16.01;100.00
38163;BME280;23977;53.078;18.248;2023-07-13T00:55:55;100872.00;;;15.86;100.00
38163;BME280;23977;53.078;18.248;2023-07-13T00:58:30;100892.25;;;15.89;100.00
38163;BME280;23977;53.078;18.248;2023-07-13T01:00:59;100856.28;;;15.83;100.00
38163;BME280;23977;53.078;18.248;2023-07-13T01:03:30;100879.66;;;16.11;100.00
38163;BME280;23977;53.078;18.248;2023-07-13T01:06:02;100856.03;;;15.78;100.00
38163;BME280;23977;53.078;18.248;2023-07-13T01:08:30;100891.66;;;15.94;100.00
38163;BME280;23977;53.078;18.248;2023-07-13T01:11:08;100850.09;;;15.83;100.00
38163;BME280;23977;53.078;18.248;2023-07-13T01:13:45;100881.47;;;15.82;100.00
38163;BME280;23977;53.078;18.248;2023-07-13T01:16:35;100882.56;;;16.16;100.00
38163;BME280;23977;53.078;18.248;2023-07-13T01:19:33;100876.88;;;16.26;100.00
38163;BME280;23977;53.078;18.248;2023-07-13T01:22:09;100870.69;;;16.25;100.00
38163;BME280;23977;53.078;18.248;2023-07-13T01:24:39;100781.25;;;15.53;100.00
38163;BME280;23977;53.078;18.248;2023-07-13T01:27:14;100862.75;;;15.89;100.00
38163;BME280;23977;53.078;18.248;2023-07-13T01:29:55;100842.44;;;15.65;100.00
38163;BME280;23977;53.078;18.248;2023-07-13T01:32:31;100841.56;;;15.58;100.00
38163;BME280;23977;53.078;18.248;2023-07-13T01:35:20;100877.66;;;15.77;100.00
38163;BME280;23977;53.078;18.248;2023-07-13T01:38:04;100878.75;;;15.61;100.00
38163;BME280;23977;53.078;18.248;2023-07-13T01:40:40;100876.81;;;15.54;100.00
38163;BME280;23977;53.078;18.248;2023-07-13T01:43:12;100876.53;;;15.49;100.00
38163;BME280;23977;53.078;18.248;2023-07-13T01:45:43;100852.50;;;15.20;100.00
38163;BME280;23977;53.078;18.248;2023-07-13T01:48:22;100834.56;;;15.05;100.00
38163;BME280;23977;53.078;18.248;2023-07-13T01:50:57;100847.41;;;15.10;100.00
38163;BME280;23977;53.078;18.248;2023-07-13T01:53:23;100901.63;;;15.42;100.00
38163;BME280;23977;53.078;18.248;2023-07-13T01:55:48;100886.13;;;15.59;100.00
38163;BME280;23977;53.078;18.248;2023-07-13T01:58:14;100878.34;;;15.42;100.00
38163;BME280;23977;53.078;18.248;2023-07-13T02:00:40;100900.06;;;15.47;100.00
38163;BME280;23977;53.078;18.248;2023-07-13T02:03:05;100850.81;;;15.18;100.00
38163;BME280;23977;53.078;18.248;2023-07-13T02:05:31;100900.72;;;15.34;100.00
38163;BME280;23977;53.078;18.248;2023-07-13T02:07:57;100907.38;;;15.24;100.00
38163;BME280;23977;53.078;18.248;2023-07-13T02:10:41;100891.59;;;15.29;100.00
38163;BME280;23977;53.078;18.248;2023-07-13T02:13:18;100883.81;;;15.34;100.00
38163;BME280;23977;53.078;18.248;2023-07-13T02:15:49;100877.16;;;15.30;100.00
38163;BME280;23977;53.078;18.248;2023-07-13T02:18:18;100896.63;;;15.39;100.00
38163;BME280;23977;53.078;18.248;2023-07-13T02:20:46;100893.38;;;15.43;100.00
38163;BME280;23977;53.078;18.248;2023-07-13T02:23:14;100840.13;;;15.40;100.00
38163;BME280;23977;53.078;18.248;2023-07-13T02:25:40;100869.34;;;15.71;100.00
38163;BME280;23977;53.078;18.248;2023-07-13T02:28:08;100864.97;;;15.85;100.00
38163;BME280;23977;53.078;18.248;2023-07-13T02:30:37;100839.50;;;15.60;100.00
38163;BME280;23977;53.078;18.248;2023-07-13T02:33:04;100803.81;;;15.59;100.00
38163;BME280;23977;53.078;18.248;2023-07-13T02:35:30;100873.47;;;16.11;100.00
38163;BME280;23977;53.078;18.248;2023-07-13T02:37:56;100840.66;;;15.94;100.00
38163;BME280;23977;53.078;18.248;2023-07-13T02:40:22;100859.41;;;15.87;100.00
38163;BME280;23977;53.078;18.248;2023-07-13T02:42:49;100834.78;;;15.62;100.00
38163;BME280;23977;53.078;18.248;2023-07-13T02:45:15;100859.06;;;15.75;100.00
38163;BME280;23977;53.078;18.248;2023-07-13T02:47:42;100869.44;;;15.78;100.00
38163;BME280;23977;53.078;18.248;2023-07-13T02:50:09;100818.66;;;15.40;100.00
38163;BME280;23977;53.078;18.248;2023-07-13T02:52:36;100837.31;;;15.48;100.00
38163;BME280;23977;53.078;18.248;2023-07-13T02:55:05;100861.84;;;15.67;100.00
38163;BME280;23977;53.078;18.248;2023-07-13T02:57:30;100847.94;;;15.57;100.00
38163;BME280;23977;53.078;18.248;2023-07-13T02:59:58;100806.41;;;15.31;100.00
38163;BME280;23977;53.078;18.248;2023-07-13T03:02:26;100867.91;;;15.90;100.00
38163;BME280;23977;53.078;18.248;2023-07-13T03:04:56;100855.63;;;16.03;100.00
38163;BME280;23977;53.078;18.248;2023-07-13T03:07:22;100860.38;;;15.79;100.00
38163;BME280;23977;53.078;18.248;2023-07-13T03:09:58;100850.53;;;15.86;100.00
38163;BME280;23977;53.078;18.248;2023-07-13T03:12:27;100862.78;;;15.74;100.00
38163;BME280;23977;53.078;18.248;2023-07-13T03:14:57;100863.53;;;15.68;100.00
38163;BME280;23977;53.078;18.248;2023-07-13T03:17:25;100877.75;;;15.83;100.00
38163;BME280;23977;53.078;18.248;2023-07-13T03:19:57;100854.28;;;15.70;100.00
38163;BME280;23977;53.078;18.248;2023-07-13T03:22:32;100865.53;;;16.02;100.00
38163;BME280;23977;53.078;18.248;2023-07-13T03:25:09;100861.13;;;15.95;100.00
38163;BME280;23977;53.078;18.248;2023-07-13T03:27:57;100886.94;;;16.45;100.00
38163;BME280;23977;53.078;18.248;2023-07-13T03:30:23;100881.28;;;16.34;100.00
38163;BME280;23977;53.078;18.248;2023-07-13T03:33:09;100865.94;;;16.27;100.00
38163;BME280;23977;53.078;18.248;2023-07-13T03:35:40;100884.59;;;16.64;100.00
38163;BME280;23977;53.078;18.248;2023-07-13T03:38:18;100850.25;;;16.59;100.00
38163;BME280;23977;53.078;18.248;2023-07-13T03:41:00;100840.38;;;16.73;100.00
38163;BME280;23977;53.078;18.248;2023-07-13T03:43:48;100888.47;;;17.31;100.00
38163;BME280;23977;53.078;18.248;2023-07-13T03:47:09;100844.13;;;18.02;100.00
38163;BME280;23977;53.078;18.248;2023-07-13T03:50:16;100865.66;;;18.29;100.00
38163;BME280;23977;53.078;18.248;2023-07-13T03:52:46;100891.09;;;18.60;100.00
38163;BME280;23977;53.078;18.248;2023-07-13T03:55:17;100895.06;;;18.57;100.00
38163;BME280;23977;53.078;18.248;2023-07-13T03:58:47;100904.16;;;18.49;100.00
38163;BME280;23977;53.078;18.248;2023-07-13T04:01:26;100909.56;;;18.49;100.00
38163;BME280;23977;53.078;18.248;2023-07-13T04:04:09;100909.34;;;18.44;100.00
38163;BME280;23977;53.078;18.248;2023-07-13T04:07:24;100835.41;;;18.07;100.00
38163;BME280;23977;53.078;18.248;2023-07-13T04:11:02;100922.41;;;18.47;100.00
38163;BME280;23977;53.078;18.248;2023-07-13T04:14:03;100887.00;;;18.24;100.00
38163;BME280;23977;53.078;18.248;2023-07-13T04:17:37;100926.56;;;18.37;100.00
38163;BME280;23977;53.078;18.248;2023-07-13T04:20:29;100892.19;;;18.05;100.00
38163;BME280;23977;53.078;18.248;2023-07-13T04:23:44;100934.03;;;18.35;100.00
38163;BME280;23977;53.078;18.248;2023-07-13T04:27:02;100929.03;;;18.31;100.00
38163;BME280;23977;53.078;18.248;2023-07-13T04:30:13;100920.34;;;18.09;100.00
38163;BME280;23977;53.078;18.248;2023-07-13T04:34:02;100905.84;;;17.97;100.00
38163;BME280;23977;53.078;18.248;2023-07-13T04:37:08;100921.16;;;18.03;100.00
38163;BME280;23977;53.078;18.248;2023-07-13T04:40:06;100920.97;;;18.31;100.00
38163;BME280;23977;53.078;18.248;2023-07-13T04:42:39;100915.97;;;18.89;100.00
38163;BME280;23977;53.078;18.248;2023-07-13T04:45:47;100917.13;;;22.07;100.00
38163;BME280;23977;53.078;18.248;2023-07-13T04:51:22;100801.38;;;26.91;71.81
38163;BME280;23977;53.078;18.248;2023-07-13T04:58:12;100885.69;;;28.54;64.53
38163;BME280;23977;53.078;18.248;2023-07-13T05:00:44;100955.19;;;27.91;65.57
38163;BME280;23977;53.078;18.248;2023-07-13T05:03:21;100785.13;;;26.06;66.15
38163;BME280;23977;53.078;18.248;2023-07-13T05:06:08;100813.53;;;25.45;70.24
38163;BME280;23977;53.078;18.248;2023-07-13T05:08:41;100800.78;;;25.89;71.11
38163;BME280;23977;53.078;18.248;2023-07-13T05:11:14;100796.16;;;26.27;71.55
38163;BME280;23977;53.078;18.248;2023-07-13T05:14:44;100957.31;;;27.48;68.78
38163;BME280;23977;53.078;18.248;2023-07-13T05:18:00;100814.44;;;26.79;66.63
38163;BME280;23977;53.078;18.248;2023-07-13T05:25:13;100944.03;;;26.29;69.56
38163;BME280;23977;53.078;18.248;2023-07-13T05:32:11;100795.47;;;24.46;73.83
38163;BME280;23977;53.078;18.248;2023-07-13T05:35:55;100805.81;;;24.66;74.15
38163;BME280;23977;53.078;18.248;2023-07-13T05:38:47;100979.31;;;28.76;64.65
38163;BME280;23977;53.078;18.248;2023-07-13T05:41:53;100979.91;;;32.49;53.67
38163;BME280;23977;53.078;18.248;2023-07-13T05:45:35;100887.81;;;32.69;45.99
38163;BME280;23977;53.078;18.248;2023-07-13T06:07:35;100829.78;;;32.05;47.10
38163;BME280;23977;53.078;18.248;2023-07-13T06:15:14;100837.41;;;33.78;42.06
38163;BME280;23977;53.078;18.248;2023-07-13T06:19:18;100956.41;;;35.25;39.24
38163;BME280;23977;53.078;18.248;2023-07-13T06:23:10;100945.19;;;36.64;36.56
38163;BME280;23977;53.078;18.248;2023-07-13T06:26:45;100933.97;;;37.20;36.49
38163;BME280;23977;53.078;18.248;2023-07-13T06:29:28;100939.50;;;36.61;35.78
38163;BME280;23977;53.078;18.248;2023-07-13T06:31:54;100935.00;;;37.07;34.50
38163;BME280;23977;53.078;18.248;2023-07-13T06:34:20;100934.06;;;37.75;34.76
38163;BME280;23977;53.078;18.248;2023-07-13T06:36:45;100945.03;;;38.38;32.07
38163;BME280;23977;53.078;18.248;2023-07-13T06:39:11;100945.66;;;39.18;31.53
38163;BME280;23977;53.078;18.248;2023-07-13T06:41:37;100943.38;;;40.05;29.59
38163;BME280;23977;53.078;18.248;2023-07-13T06:44:04;100937.31;;;38.81;30.08
38163;BME280;23977;53.078;18.248;2023-07-13T06:47:23;100939.34;;;32.82;38.68
38163;BME280;23977;53.078;18.248;2023-07-13T06:50:45;100945.63;;;30.84;44.28
38163;BME280;23977;53.078;18.248;2023-07-13T06:53:35;100869.03;;;29.21;47.05
38163;BME280;23977;53.078;18.248;2023-07-13T06:56:25;100837.84;;;27.38;51.14
38163;BME280;23977;53.078;18.248;2023-07-13T06:58:56;100920.16;;;27.62;53.34
38163;BME280;23977;53.078;18.248;2023-07-13T07:01:36;100783.94;;;26.39;54.84
38163;BME280;23977;53.078;18.248;2023-07-13T07:08:52;100978.19;;;26.69;58.95
38163;BME280;23977;53.078;18.248;2023-07-13T07:12:23;100986.66;;;26.67;58.29
38163;BME280;23977;53.078;18.248;2023-07-13T07:20:18;100979.56;;;29.61;50.31
38163;BME280;23977;53.078;18.248;2023-07-13T07:31:21;100817.16;;;32.45;38.35
38163;BME280;23977;53.078;18.248;2023-07-13T07:38:24;100966.03;;;35.62;37.05
38163;BME280;23977;53.078;18.248;2023-07-13T07:41:42;100972.28;;;39.31;31.01
38163;BME280;23977;53.078;18.248;2023-07-13T07:44:08;100935.78;;;39.89;29.02
38163;BME280;23977;53.078;18.248;2023-07-13T07:46:35;100964.34;;;41.10;28.36
38163;BME280;23977;53.078;18.248;2023-07-13T07:49:01;100940.72;;;42.02;26.21
38163;BME280;23977;53.078;18.248;2023-07-13T07:51:28;100958.88;;;40.18;28.92
38163;BME280;23977;53.078;18.248;2023-07-13T07:53:54;100959.31;;;38.74;30.65
38163;BME280;23977;53.078;18.248;2023-07-13T07:56:19;100948.06;;;37.79;30.38
38163;BME280;23977;53.078;18.248;2023-07-13T07:58:45;100953.66;;;34.53;35.70
38163;BME280;23977;53.078;18.248;2023-07-13T08:01:30;100978.66;;;33.02;38.06
38163;BME280;23977;53.078;18.248;2023-07-13T08:04:17;100969.28;;;33.17;38.22
38163;BME280;23977;53.078;18.248;2023-07-13T08:07:48;100979.47;;;33.30;37.97
38163;BME280;23977;53.078;18.248;2023-07-13T08:35:26;100920.81;;;37.93;34.19
38163;BME280;23977;53.078;18.248;2023-07-13T08:37:52;100893.25;;;42.05;27.14
38163;BME280;23977;53.078;18.248;2023-07-13T08:40:19;100941.00;;;45.29;23.26
38163;BME280;23977;53.078;18.248;2023-07-13T08:42:58;100927.38;;;49.58;19.44
38163;BME280;23977;53.078;18.248;2023-07-13T08:48:02;100900.75;;;53.47;16.94
38163;BME280;23977;53.078;18.248;2023-07-13T08:50:34;100874.94;;;55.03;14.54
38163;BME280;23977;53.078;18.248;2023-07-13T08:53:03;100896.44;;;53.42;15.63
38163;BME280;23977;53.078;18.248;2023-07-13T08:55:31;100909.84;;;53.41;15.65
38163;BME280;23977;53.078;18.248;2023-07-13T08:58:03;100915.53;;;54.41;15.33
38163;BME280;23977;53.078;18.248;2023-07-13T09:00:39;100904.19;;;51.25;16.49
38163;BME280;23977;53.078;18.248;2023-07-13T09:03:16;100923.00;;;51.16;16.43
38163;BME280;23977;53.078;18.248;2023-07-13T09:05:51;100901.03;;;48.24;18.59
38163;BME280;23977;53.078;18.248;2023-07-13T09:10:53;100932.75;;;46.94;20.39
38163;BME280;23977;53.078;18.248;2023-07-13T09:15:53;100910.72;;;41.20;25.37
38163;BME280;23977;53.078;18.248;2023-07-13T09:18:41;100908.34;;;40.67;26.69
38163;BME280;23977;53.078;18.248;2023-07-13T09:21:09;100923.41;;;39.46;27.29
38163;BME280;23977;53.078;18.248;2023-07-13T09:23:36;100919.84;;;40.02;27.88
38163;BME280;23977;53.078;18.248;2023-07-13T09:26:06;100910.53;;;43.11;24.28
38163;BME280;23977;53.078;18.248;2023-07-13T09:28:43;100885.72;;;39.93;26.31
38163;BME280;23977;53.078;18.248;2023-07-13T09:31:30;100861.50;;;38.72;28.24
38163;BME280;23977;53.078;18.248;2023-07-13T09:33:59;100891.75;;;37.36;30.13
38163;BME280;23977;53.078;18.248;2023-07-13T09:36:32;100908.13;;;37.29;30.44
38163;BME280;23977;53.078;18.248;2023-07-13T10:07:44;100737.84;;;19.15;100.00
38163;BME280;23977;53.078;18.248;2023-07-13T12:22:52;100946.22;;;27.96;69.67
38163;BME280;23977;53.078;18.248;2023-07-13T13:44:38;100853.38;;;22.28;91.32
38163;BME280;23977;53.078;18.248;2023-07-13T13:59:57;100960.03;;;25.38;86.21
38163;BME280;23977;53.078;18.248;2023-07-13T18:58:15;100887.94;;;19.87;71.34
38163;BME280;23977;53.078;18.248;2023-07-13T19:01:20;100787.78;;;18.86;72.50
38163;BME280;23977;53.078;18.248;2023-07-13T19:04:29;100788.50;;;18.48;73.93
38163;BME280;23977;53.078;18.248;2023-07-13T19:07:22;100789.38;;;18.22;73.51
38163;BME280;23977;53.078;18.248;2023-07-13T19:10:16;100880.09;;;18.68;73.56
38163;BME280;23977;53.078;18.248;2023-07-13T19:13:13;100808.03;;;18.10;72.75
38163;BME280;23977;53.078;18.248;2023-07-13T19:15:52;101025.19;;;19.38;72.76
38163;BME280;23977;53.078;18.248;2023-07-13T19:18:29;101014.81;;;19.28;74.26
38163;BME280;23977;53.078;18.248;2023-07-13T19:20:58;100927.38;;;18.64;74.49
38163;BME280;23977;53.078;18.248;2023-07-13T19:23:37;100921.59;;;18.40;75.25
38163;BME280;23977;53.078;18.248;2023-07-13T19:26:27;101035.03;;;18.99;74.63
38163;BME280;23977;53.078;18.248;2023-07-13T19:28:57;101035.03;;;18.85;74.47
38163;BME280;23977;53.078;18.248;2023-07-13T19:31:30;100842.00;;;17.78;73.87
38163;BME280;23977;53.078;18.248;2023-07-13T19:34:15;100872.59;;;17.63;76.37
38163;BME280;23977;53.078;18.248;2023-07-13T19:36:46;100921.50;;;17.80;76.93
38163;BME280;23977;53.078;18.248;2023-07-13T19:39:34;101027.94;;;18.58;76.70
38163;BME280;23977;53.078;18.248;2023-07-13T19:42:15;100875.50;;;17.68;75.93
38163;BME280;23977;53.078;18.248;2023-07-13T19:44:43;100936.50;;;18.09;77.51
38163;BME280;23977;53.078;18.248;2023-07-13T19:47:22;101050.16;;;18.86;75.64
38163;BME280;23977;53.078;18.248;2023-07-13T19:49:52;101053.47;;;18.75;74.40
38163;BME280;23977;53.078;18.248;2023-07-13T19:52:22;100927.81;;;18.07;73.44
38163;BME280;23977;53.078;18.248;2023-07-13T19:54:55;100992.50;;;18.47;72.34
38163;BME280;23977;53.078;18.248;2023-07-13T19:57:25;100891.94;;;17.93;72.34
38163;BME280;23977;53.078;18.248;2023-07-13T19:59:52;101004.69;;;18.77;72.13
38163;BME280;23977;53.078;18.248;2023-07-13T20:02:23;100938.59;;;18.41;73.05
38163;BME280;23977;53.078;18.248;2023-07-13T20:04:55;100966.78;;;18.58;71.62
38163;BME280;23977;53.078;18.248;2023-07-13T20:07:28;100990.81;;;18.73;70.39
38163;BME280;23977;53.078;18.248;2023-07-13T20:09:59;100983.78;;;18.65;70.20
38163;BME280;23977;53.078;18.248;2023-07-13T20:12:26;100956.63;;;18.67;69.14
38163;BME280;23977;53.078;18.248;2023-07-13T20:14:55;100986.28;;;18.80;68.51
38163;BME280;23977;53.078;18.248;2023-07-13T20:17:31;101023.63;;;19.03;69.11
38163;BME280;23977;53.078;18.248;2023-07-13T20:20:21;101079.19;;;19.11;69.59
38163;BME280;23977;53.078;18.248;2023-07-13T20:23:18;100919.13;;;18.32;67.74
38163;BME280;23977;53.078;18.248;2023-07-13T20:26:03;100840.38;;;18.10;67.20
38163;BME280;23977;53.078;18.248;2023-07-13T20:28:31;101022.31;;;19.19;67.69
38163;BME280;23977;53.078;18.248;2023-07-13T20:30:59;101060.06;;;19.33;69.10
38163;BME280;23977;53.078;18.248;2023-07-13T20:33:35;101076.47;;;19.25;69.25
38163;BME280;23977;53.078;18.248;2023-07-13T20:36:05;101069.66;;;19.15;69.93
38163;BME280;23977;53.078;18.248;2023-07-13T20:38:35;101033.94;;;18.73;70.24
38163;BME280;23977;53.078;18.248;2023-07-13T20:41:02;101066.34;;;18.86;71.53
38163;BME280;23977;53.078;18.248;2023-07-13T20:43:33;101071.69;;;18.80;71.47
38163;BME280;23977;53.078;18.248;2023-07-13T20:46:02;100951.44;;;18.05;71.38
38163;BME280;23977;53.078;18.248;2023-07-13T20:48:40;100927.31;;;17.84;71.58
38163;BME280;23977;53.078;18.248;2023-07-13T20:51:11;101089.13;;;18.64;72.55
38163;BME280;23977;53.078;18.248;2023-07-13T20:53:43;101007.94;;;17.92;72.92
38163;BME280;23977;53.078;18.248;2023-07-13T20:56:16;100959.25;;;17.38;73.41
38163;BME280;23977;53.078;18.248;2023-07-13T20:58:44;101099.66;;;18.45;73.32
38163;BME280;23977;53.078;18.248;2023-07-13T21:01:20;100984.56;;;17.99;72.04
38163;BME280;23977;53.078;18.248;2023-07-13T21:03:57;101110.69;;;18.71;71.80
38163;BME280;23977;53.078;18.248;2023-07-13T21:06:25;101118.59;;;18.72;71.55
38163;BME280;23977;53.078;18.248;2023-07-13T21:08:57;100971.94;;;18.13;70.81
38163;BME280;23977;53.078;18.248;2023-07-13T21:11:23;101019.44;;;18.54;69.71
38163;BME280;23977;53.078;18.248;2023-07-13T21:13:54;101086.28;;;18.85;70.21
38163;BME280;23977;53.078;18.248;2023-07-13T21:16:25;101018.19;;;18.70;69.69
38163;BME280;23977;53.078;18.248;2023-07-13T21:18:59;101053.47;;;19.15;69.12
38163;BME280;23977;53.078;18.248;2023-07-13T21:21:27;100917.84;;;18.35;70.21
38163;BME280;23977;53.078;18.248;2023-07-13T21:23:55;101099.31;;;19.42;70.59
38163;BME280;23977;53.078;18.248;2023-07-13T21:26:25;101009.06;;;18.71;71.70
38163;BME280;23977;53.078;18.248;2023-07-13T21:29:14;100958.28;;;18.41;71.67
38163;BME280;23977;53.078;18.248;2023-07-13T21:31:43;100998.69;;;18.68;70.49
38163;BME280;23977;53.078;18.248;2023-07-13T21:34:17;101055.75;;;18.98;71.01
38163;BME280;23977;53.078;18.248;2023-07-13T21:36:47;101043.50;;;18.82;70.79
38163;BME280;23977;53.078;18.248;2023-07-13T21:39:18;101044.75;;;18.86;70.15
38163;BME280;23977;53.078;18.248;2023-07-13T21:41:45;100969.25;;;18.46;70.45
38163;BME280;23977;53.078;18.248;2023-07-13T21:44:24;100984.41;;;18.47;70.40
38163;BME280;23977;53.078;18.248;2023-07-13T21:46:52;101122.31;;;19.51;70.08
38163;BME280;23977;53.078;18.248;2023-07-13T21:49:25;101100.38;;;19.08;70.92
38163;BME280;23977;53.078;18.248;2023-07-13T21:52:02;101066.72;;;18.70;71.78
38163;BME280;23977;53.078;18.248;2023-07-13T21:54:38;101092.63;;;18.64;71.65
38163;BME280;23977;53.078;18.248;2023-07-13T21:57:14;101139.16;;;18.86;72.17
38163;BME280;23977;53.078;18.248;2023-07-13T21:59:51;100976.28;;;18.01;72.21
38163;BME280;23977;53.078;18.248;2023-07-13T22:02:18;101123.78;;;18.74;73.45
38163;BME280;23977;53.078;18.248;2023-07-13T22:04:48;101094.22;;;18.19;75.23
38163;BME280;23977;53.078;18.248;2023-07-13T22:07:16;101084.03;;;18.14;74.82
38163;BME280;23977;53.078;18.248;2023-07-13T22:09:54;101129.50;;;18.44;73.70
38163;BME280;23977;53.078;18.248;2023-07-13T22:12:24;101004.34;;;17.85;73.78
38163;BME280;23977;53.078;18.248;2023-07-13T22:14:54;101062.22;;;17.96;76.00
38163;BME280;23977;53.078;18.248;2023-07-13T22:17:27;101041.56;;;17.68;76.05
38163;BME280;23977;53.078;18.248;2023-07-13T22:19:54;101023.69;;;17.18;77.21
38163;BME280;23977;53.078;18.248;2023-07-13T22:22:22;101151.56;;;18.12;77.77
38163;BME280;23977;53.078;18.248;2023-07-13T22:25:03;101000.34;;;17.19;78.27
38163;BME280;23977;53.078;18.248;2023-07-13T22:27:31;100978.22;;;16.89;78.56
38163;BME280;23977;53.078;18.248;2023-07-13T22:30:03;101075.22;;;17.50;79.96
38163;BME280;23977;53.078;18.248;2023-07-13T22:33:00;101006.41;;;16.99;80.72
38163;BME280;23977;53.078;18.248;2023-07-13T22:35:29;101129.25;;;17.49;81.55
38163;BME280;23977;53.078;18.248;2023-07-13T22:37:58;101062.25;;;16.97;81.76
38163;BME280;23977;53.078;18.248;2023-07-13T22:40:33;101093.88;;;16.95;83.60
38163;BME280;23977;53.078;18.248;2023-07-13T22:43:01;101081.06;;;16.76;83.41
38163;BME280;23977;53.078;18.248;2023-07-13T22:45:32;101163.88;;;17.30;83.56
38163;BME280;23977;53.078;18.248;2023-07-13T22:47:59;100967.75;;;16.22;82.52
38163;BME280;23977;53.078;18.248;2023-07-13T22:50:41;101139.66;;;17.30;82.88
38163;BME280;23977;53.078;18.248;2023-07-13T22:53:19;101084.91;;;16.88;82.92
38163;BME280;23977;53.078;18.248;2023-07-13T22:55:46;101075.94;;;16.81;83.25
38163;BME280;23977;53.078;18.248;2023-07-13T22:58:15;101116.91;;;17.05;83.08
38163;BME280;23977;53.078;18.248;2023-07-13T23:00:47;100961.84;;;15.90;83.45
38163;BME280;23977;53.078;18.248;2023-07-13T23:03:17;101087.81;;;16.50;84.69
38163;BME280;23977;53.078;18.248;2023-07-13T23:05:44;101106.50;;;16.58;84.07
38163;BME280;23977;53.078;18.248;2023-07-13T23:08:30;100977.56;;;15.94;83.21
38163;BME280;23977;53.078;18.248;2023-07-13T23:11:22;101065.22;;;16.23;83.86
38163;BME280;23977;53.078;18.248;2023-07-13T23:14:12;101121.88;;;16.64;83.42
38163;BME280;23977;53.078;18.248;2023-07-13T23:17:16;101110.25;;;16.57;82.97
38163;BME280;23977;53.078;18.248;2023-07-13T23:20:28;101188.63;;;16.82;83.80
38163;BME280;23977;53.078;18.248;2023-07-13T23:23:17;101104.06;;;16.42;84.04
38163;BME280;23977;53.078;18.248;2023-07-13T23:26:04;101047.31;;;16.08;84.90
38163;BME280;23977;53.078;18.248;2023-07-13T23:28:37;101015.38;;;15.62;85.83
38163;BME280;23977;53.078;18.248;2023-07-13T23:31:31;101003.06;;;15.38;86.01
38163;BME280;23977;53.078;18.248;2023-07-13T23:34:14;101048.00;;;15.66;87.19
38163;BME280;23977;53.078;18.248;2023-07-13T23:37:17;101061.91;;;15.54;87.90
38163;BME280;23977;53.078;18.248;2023-07-13T23:40:24;101117.63;;;15.82;89.70
